Time;durP1;ratioP1;P1;durP2;ratioP2;P2;SDS_P1;SDS_P2;PMS_P1;PMS_P2;Temp;Humidity;BMP_temperature;BMP_pressure;BME280_temperature;BME280_humidity;BME280_pressure;Samples;Min_cycle;Max_cycle;Signal;HPM_P1;HPM_P2
2023/12/30 00:00:44;;;;;;;10.18;9.18;;;23.90;70.00;;;;;;6229322;28;89018;-64
2023/12/30 00:03:47;;;;;;;9.48;8.57;;;23.90;70.00;;;;;;6228239;28;89374;-64
2023/12/30 00:06:50;;;;;;;9.77;8.88;;;23.90;70.10;;;;;;6228357;28;88877;-64
2023/12/30 00:09:52;;;;;;;10.27;9.27;;;23.90;70.00;;;;;;6219303;28;89043;-64
2023/12/30 00:12:53;;;;;;;9.90;9.00;;;23.80;70.10;;;;;;6229036;28;89420;-64
2023/12/30 00:15:55;;;;;;;10.23;9.32;;;23.80;70.10;;;;;;6228694;28;89279;-64
2023/12/30 00:18:59;;;;;;;10.05;9.15;;;23.80;70.10;;;;;;6220747;28;88707;-64
2023/12/30 00:22:01;;;;;;;9.95;9.05;;;23.80;70.10;;;;;;6231500;28;89019;-64
2023/12/30 00:25:03;;;;;;;10.57;9.57;;;23.80;70.20;;;;;;6233702;28;89192;-64
2023/12/30 00:28:05;;;;;;;10.80;9.80;;;23.80;70.20;;;;;;6233287;28;89946;-64
2023/12/30 00:31:07;;;;;;;10.27;9.38;;;23.70;70.10;;;;;;6233655;28;89105;-63
2023/12/30 00:34:10;;;;;;;11.18;10.18;;;23.80;70.20;;;;;;6234226;28;89056;-64
2023/12/30 00:37:13;;;;;;;11.10;10.10;;;23.80;70.30;;;;;;6233963;28;88997;-64
2023/12/30 00:40:15;;;;;;;10.80;9.80;;;23.70;70.30;;;;;;6232031;28;87931;-63
2023/12/30 00:43:17;;;;;;;11.30;10.30;;;23.70;70.30;;;;;;6232455;28;89096;-64
2023/12/30 00:46:20;;;;;;;11.00;10.00;;;23.70;70.30;;;;;;6233114;28;88049;-64
2023/12/30 00:49:24;;;;;;;11.32;10.23;;;23.70;70.30;;;;;;6232554;28;88319;-64
2023/12/30 00:52:26;;;;;;;11.27;10.23;;;23.70;70.30;;;;;;6231262;28;89515;-64
2023/12/30 00:55:28;;;;;;;11.73;10.60;;;23.70;70.30;;;;;;6232584;28;89247;-64
2023/12/30 00:58:30;;;;;;;10.95;9.95;;;23.60;70.30;;;;;;6232172;28;90363;-63
2023/12/30 01:01:32;;;;;;;11.85;10.75;;;23.70;70.40;;;;;;6234597;28;89453;-64
2023/12/30 01:04:35;;;;;;;11.93;10.82;;;23.60;70.30;;;;;;6232318;28;89044;-64
2023/12/30 01:07:37;;;;;;;11.63;10.52;;;23.60;70.40;;;;;;6231862;28;89042;-64
2023/12/30 01:10:39;;;;;;;12.10;11.00;;;23.60;70.40;;;;;;6231281;28;89566;-63
2023/12/30 01:13:41;;;;;;;12.38;11.18;;;23.60;70.50;;;;;;6232465;28;89140;-64
2023/12/30 01:16:43;;;;;;;11.82;10.73;;;23.60;70.50;;;;;;6232859;28;88947;-64
2023/12/30 01:19:47;;;;;;;11.77;10.68;;;23.60;70.50;;;;;;6233006;28;88232;-63
2023/12/30 01:22:49;;;;;;;11.52;10.43;;;23.60;70.60;;;;;;6229878;28;88119;-64
2023/12/30 01:25:51;;;;;;;12.13;11.00;;;23.60;70.60;;;;;;6231540;28;88979;-64
2023/12/30 01:28:53;;;;;;;11.13;10.13;;;23.60;71.50;;;;;;6231284;28;90339;-64
2023/12/30 01:31:55;;;;;;;11.85;10.65;;;23.60;70.60;;;;;;6231047;28;89069;-63
2023/12/30 01:34:58;;;;;;;11.38;10.38;;;23.60;70.50;;;;;;6232101;28;87970;-64
2023/12/30 01:38:00;;;;;;;12.23;11.02;;;23.60;70.50;;;;;;6230560;28;88013;-63
2023/12/30 01:41:02;;;;;;;12.10;10.90;;;23.60;70.50;;;;;;6231154;28;89451;-63
2023/12/30 01:44:04;;;;;;;12.23;10.98;;;23.60;70.50;;;;;;6231739;28;89103;-64
2023/12/30 01:47:06;;;;;;;11.82;10.73;;;23.50;70.50;;;;;;6220467;28;89114;-64
2023/12/30 01:50:11;;;;;;;11.90;10.80;;;23.50;70.50;;;;;;6231893;28;88552;-64
2023/12/30 01:53:14;;;;;;;11.68;10.57;;;23.60;70.60;;;;;;6231032;28;89124;-64
2023/12/30 01:56:17;;;;;;;11.90;10.80;;;23.60;70.60;;;;;;6230703;28;89123;-64
2023/12/30 01:59:19;;;;;;;12.23;11.13;;;23.50;70.50;;;;;;6230102;28;90171;-63
2023/12/30 02:02:22;;;;;;;12.05;10.98;;;23.50;70.50;;;;;;6231363;28;89054;-64
2023/12/30 02:05:26;;;;;;;11.95;10.85;;;23.50;70.60;;;;;;6230515;28;88924;-64
2023/12/30 02:08:28;;;;;;;12.13;10.93;;;23.50;70.60;;;;;;6220419;28;89127;-64
2023/12/30 02:11:30;;;;;;;12.18;11.05;;;23.50;70.60;;;;;;6224576;28;89051;-63
2023/12/30 02:14:33;;;;;;;12.52;11.32;;;23.50;70.60;;;;;;6229403;28;89017;-63
2023/12/30 02:17:35;;;;;;;12.30;11.20;;;23.40;70.60;;;;;;6231413;28;89454;-64
2023/12/30 02:20:39;;;;;;;12.00;10.90;;;23.40;70.60;;;;;;6232980;28;87276;-64
2023/12/30 02:23:43;;;;;;;11.85;10.75;;;23.40;70.60;;;;;;6229597;28;89136;-64
2023/12/30 02:26:45;;;;;;;11.90;10.82;;;23.40;70.70;;;;;;6230409;28;89055;-64
2023/12/30 02:29:46;;;;;;;11.43;10.43;;;23.40;70.70;;;;;;6230499;28;89921;-64
2023/12/30 02:32:48;;;;;;;11.20;10.20;;;23.40;70.70;;;;;;6224883;28;89665;-63
2023/12/30 02:35:51;;;;;;;12.13;11.02;;;23.40;70.80;;;;;;6229331;28;89039;-64
2023/12/30 02:38:56;;;;;;;12.45;11.35;;;23.40;70.80;;;;;;6223806;28;89130;-64
2023/12/30 02:41:58;;;;;;;12.40;11.20;;;23.40;70.80;;;;;;6222493;28;89074;-64
2023/12/30 02:45:01;;;;;;;11.88;10.77;;;23.40;70.90;;;;;;6229917;28;89025;-64
2023/12/30 02:48:03;;;;;;;11.30;10.20;;;23.30;70.80;;;;;;6230568;28;89347;-64
2023/12/30 02:51:05;;;;;;;11.85;10.70;;;23.30;70.80;;;;;;6227162;28;87300;-64
2023/12/30 02:54:09;;;;;;;12.85;11.65;;;23.40;70.80;;;;;;6229959;28;89172;-64
2023/12/30 02:57:11;;;;;;;12.02;10.93;;;23.30;70.80;;;;;;6230716;28;87936;-64
2023/12/30 03:00:14;;;;;;;12.05;10.85;;;23.40;70.90;;;;;;6230646;28;91898;-63
2023/12/30 03:03:16;;;;;;;11.98;10.88;;;23.40;70.90;;;;;;6230000;28;89083;-64
2023/12/30 03:06:18;;;;;;;12.07;10.88;;;23.30;70.80;;;;;;6226974;28;89117;-64
2023/12/30 03:09:21;;;;;;;11.93;10.82;;;23.40;70.90;;;;;;6227631;28;89394;-64
2023/12/30 03:12:23;;;;;;;12.15;11.05;;;23.30;70.80;;;;;;6231097;28;89057;-64
2023/12/30 03:15:25;;;;;;;12.27;11.10;;;23.40;71.70;;;;;;6230921;28;89200;-64
2023/12/30 03:18:27;;;;;;;12.85;11.63;;;23.30;70.80;;;;;;6230193;28;88042;-64
2023/12/30 03:21:29;;;;;;;12.68;11.07;;;23.30;70.80;;;;;;6229669;28;88548;-64
2023/12/30 03:24:32;;;;;;;12.13;11.02;;;23.30;70.80;;;;;;6228170;28;89598;-64
2023/12/30 03:27:34;;;;;;;13.43;12.02;;;23.30;70.80;;;;;;6227358;28;88989;-64
2023/12/30 03:30:37;;;;;;;12.98;11.77;;;23.30;70.80;;;;;;6228092;28;90017;-64
2023/12/30 03:33:38;;;;;;;12.68;11.48;;;23.30;70.80;;;;;;6228969;28;87917;-64
2023/12/30 03:36:40;;;;;;;12.40;11.27;;;23.30;70.90;;;;;;6229382;28;88938;-64
2023/12/30 03:39:44;;;;;;;11.82;10.73;;;23.20;70.80;;;;;;6229149;28;89023;-64
2023/12/30 03:42:46;;;;;;;12.70;11.50;;;23.20;70.80;;;;;;6221380;28;89130;-64
2023/12/30 03:45:48;;;;;;;12.43;11.32;;;23.20;70.80;;;;;;6228610;28;89048;-64
2023/12/30 03:48:49;;;;;;;12.23;11.13;;;23.20;71.00;;;;;;6228038;28;88936;-64
2023/12/30 03:51:51;;;;;;;11.90;10.80;;;23.20;70.90;;;;;;6229642;28;88273;-64
2023/12/30 03:54:55;;;;;;;12.85;11.65;;;23.20;70.90;;;;;;6228075;28;87944;-64
2023/12/30 03:57:57;;;;;;;12.27;11.10;;;23.20;70.90;;;;;;6225716;28;89130;-64
2023/12/30 04:00:59;;;;;;;12.45;11.35;;;23.10;70.90;;;;;;6228010;28;90046;-64
2023/12/30 04:04:01;;;;;;;13.23;11.93;;;23.20;71.00;;;;;;6227017;28;89068;-64
2023/12/30 04:07:03;;;;;;;12.93;11.73;;;23.10;70.90;;;;;;6227273;28;89040;-64
2023/12/30 04:10:08;;;;;;;12.68;11.48;;;23.10;71.00;;;;;;6228364;28;87916;-64
2023/12/30 04:13:10;;;;;;;13.05;11.75;;;23.20;71.00;;;;;;6228393;28;89289;-64
2023/12/30 04:16:12;;;;;;;12.52;11.30;;;23.10;71.00;;;;;;6228724;28;88983;-64
2023/12/30 04:19:16;;;;;;;11.77;10.68;;;23.10;70.90;;;;;;6228852;28;89018;-64
2023/12/30 04:22:18;;;;;;;12.10;11.00;;;23.20;71.00;;;;;;6228582;28;88371;-64
2023/12/30 04:25:21;;;;;;;12.80;11.55;;;23.20;71.00;;;;;;6226451;28;89664;-64
2023/12/30 04:28:23;;;;;;;12.25;11.10;;;23.20;71.00;;;;;;6222159;28;89079;-64
2023/12/30 04:31:25;;;;;;;12.35;11.15;;;23.20;70.90;;;;;;6225515;28;89914;-63
2023/12/30 04:34:27;;;;;;;12.55;11.38;;;23.10;70.80;;;;;;6228231;28;88955;-64
2023/12/30 04:37:29;;;;;;;12.93;11.73;;;23.10;70.80;;;;;;6228904;28;89105;-63
2023/12/30 04:40:32;;;;;;;12.57;11.27;;;23.20;71.80;;;;;;6228258;28;88226;-64
2023/12/30 04:43:34;;;;;;;12.50;11.30;;;23.20;71.00;;;;;;6228470;28;89016;-64
2023/12/30 04:46:36;;;;;;;12.23;11.05;;;23.20;71.00;;;;;;6228405;28;87889;-64
2023/12/30 04:49:38;;;;;;;12.05;10.88;;;23.20;71.00;;;;;;6228093;28;87924;-64
2023/12/30 04:52:41;;;;;;;12.32;11.13;;;23.20;70.90;;;;;;6217230;28;88584;-64
2023/12/30 04:55:44;;;;;;;12.10;11.00;;;23.20;70.90;;;;;;6226108;28;89283;-64
2023/12/30 04:58:46;;;;;;;12.27;11.07;;;23.20;70.80;;;;;;6226215;28;89057;-64
2023/12/30 05:01:48;;;;;;;11.90;10.80;;;23.30;70.80;;;;;;6209980;28;89978;-64
2023/12/30 05:04:50;;;;;;;11.98;10.88;;;23.30;70.80;;;;;;6227943;28;89037;-64
2023/12/30 05:07:52;;;;;;;10.70;9.77;;;23.30;70.80;;;;;;6231579;28;89023;-64
2023/12/30 05:10:55;;;;;;;12.55;11.35;;;23.30;70.70;;;;;;6232062;28;87962;-64
2023/12/30 05:13:57;;;;;;;11.57;10.55;;;23.40;70.70;;;;;;6221742;28;89052;-64
2023/12/30 05:16:59;;;;;;;12.20;10.95;;;23.40;70.60;;;;;;6221327;28;89075;-64
2023/12/30 05:20:01;;;;;;;12.02;10.93;;;23.40;70.60;;;;;;6209543;28;89063;-64
2023/12/30 05:23:03;;;;;;;11.13;10.05;;;23.40;70.60;;;;;;6217362;28;88469;-64
2023/12/30 05:26:07;;;;;;;11.52;10.43;;;23.50;70.60;;;;;;6231034;28;88965;-63
2023/12/30 05:29:09;;;;;;;11.05;10.05;;;23.50;70.60;;;;;;6230974;28;89040;-64
2023/12/30 05:32:11;;;;;;;10.70;9.70;;;23.50;70.50;;;;;;6230723;28;89942;-64
2023/12/30 05:35:13;;;;;;;10.70;9.70;;;23.50;70.50;;;;;;6230805;28;87939;-64
2023/12/30 05:38:15;;;;;;;10.57;9.57;;;23.50;70.50;;;;;;6232059;28;88985;-64
2023/12/30 05:41:18;;;;;;;10.90;9.90;;;23.50;70.50;;;;;;6219656;28;89142;-64
2023/12/30 05:44:20;;;;;;;10.95;9.95;;;23.60;70.50;;;;;;6232374;28;89296;-64
2023/12/30 05:47:22;;;;;;;11.10;10.10;;;23.50;70.50;;;;;;6220126;28;89069;-64
2023/12/30 05:50:24;;;;;;;10.82;9.82;;;23.50;70.50;;;;;;6231378;28;89007;-64
2023/12/30 05:53:27;;;;;;;10.52;9.52;;;23.50;70.50;;;;;;6228999;28;88339;-64
2023/12/30 05:56:31;;;;;;;10.32;9.43;;;23.50;70.60;;;;;;6221980;28;89417;-64
2023/12/30 05:59:33;;;;;;;10.77;9.77;;;23.50;70.60;;;;;;6222973;28;89024;-63
2023/12/30 06:02:35;;;;;;;9.90;9.00;;;23.50;70.70;;;;;;6231920;28;90219;-64
2023/12/30 06:05:37;;;;;;;9.90;9.00;;;23.50;70.80;;;;;;6232311;28;89115;-64
2023/12/30 06:08:39;;;;;;;9.88;8.98;;;23.50;70.70;;;;;;6232170;28;88176;-64
2023/12/30 06:11:42;;;;;;;9.95;8.95;;;23.50;70.70;;;;;;6231310;28;89506;-64
2023/12/30 06:14:44;;;;;;;9.35;8.52;;;23.40;70.70;;;;;;6231734;28;89129;-64
2023/12/30 06:17:46;;;;;;;9.93;9.02;;;23.40;70.70;;;;;;6230935;28;89096;-64
2023/12/30 06:20:48;;;;;;;9.55;8.65;;;23.40;70.70;;;;;;6231110;28;89068;-64
2023/12/30 06:23:50;;;;;;;10.70;9.63;;;23.40;70.80;;;;;;6230155;28;88490;-64
2023/12/30 06:26:54;;;;;;;9.88;8.98;;;23.40;70.80;;;;;;6209937;28;89192;-64
2023/12/30 06:29:56;;;;;;;9.77;8.88;;;23.30;70.80;;;;;;6219622;28;91510;-64
2023/12/30 06:32:59;;;;;;;9.13;8.30;;;23.40;70.80;;;;;;6231013;28;89925;-64
2023/12/30 06:36:01;;;;;;;8.95;8.15;;;23.40;70.90;;;;;;6229372;28;89070;-64
2023/12/30 06:39:04;;;;;;;8.52;7.72;;;23.40;70.90;;;;;;6224486;28;88078;-64
2023/12/30 06:42:08;;;;;;;9.77;8.77;;;23.40;70.80;;;;;;6211070;28;88999;-64
2023/12/30 06:45:10;;;;;;;9.13;8.20;;;23.40;70.80;;;;;;6230941;28;89105;-64
2023/12/30 06:48:12;;;;;;;8.68;7.88;;;23.40;70.80;;;;;;6231803;28;89210;-64
2023/12/30 06:51:14;;;;;;;8.88;8.07;;;23.40;70.80;;;;;;6219295;28;89496;-64
2023/12/30 06:54:16;;;;;;;8.65;7.85;;;23.40;70.60;;;;;;6231913;28;87141;-64
2023/12/30 06:57:24;;;;;;;8.38;7.63;;;23.40;70.60;;;;;;6231350;28;89154;-64
2023/12/30 07:00:26;;;;;;;8.13;7.32;;;23.40;70.60;;;;;;6229465;28;91198;-64
2023/12/30 07:03:28;;;;;;;8.02;7.32;;;23.50;70.60;;;;;;6218253;28;90064;-64
2023/12/30 07:06:30;;;;;;;7.60;6.90;;;23.40;70.60;;;;;;6218975;28;89067;-64
2023/12/30 07:09:32;;;;;;;8.50;7.63;;;23.50;70.60;;;;;;6217397;28;89334;-64
2023/12/30 07:12:35;;;;;;;8.52;7.63;;;23.50;70.50;;;;;;6229635;28;89134;-64
2023/12/30 07:15:37;;;;;;;7.65;6.95;;;23.50;70.40;;;;;;6208569;28;89009;-64
2023/12/30 07:18:39;;;;;;;8.00;7.30;;;23.50;70.30;;;;;;6229354;28;88988;-64
2023/12/30 07:21:41;;;;;;;7.20;6.57;;;23.50;70.30;;;;;;6230673;28;87972;-64
2023/12/30 07:24:43;;;;;;;7.15;6.55;;;23.60;71.20;;;;;;6231371;28;88254;-64
2023/12/30 07:27:47;;;;;;;7.43;6.72;;;23.60;70.30;;;;;;6229318;28;87860;-64
2023/12/30 07:30:49;;;;;;;6.90;6.30;;;23.50;70.10;;;;;;6228932;28;88959;-64
2023/12/30 07:33:51;;;;;;;8.10;7.28;;;23.60;70.20;;;;;;6229970;28;91991;-64
2023/12/30 07:36:52;;;;;;;10.07;7.65;;;23.60;70.20;;;;;;6228882;28;89020;-64
2023/12/30 07:39:54;;;;;;;6.90;6.30;;;23.60;70.20;;;;;;6219412;28;89011;-64
2023/12/30 07:42:58;;;;;;;6.82;6.22;;;23.60;70.20;;;;;;6230824;28;89158;-64
2023/12/30 07:46:00;;;;;;;6.68;6.07;;;23.60;70.20;;;;;;6217955;28;89227;-64
2023/12/30 07:49:02;;;;;;;6.75;6.15;;;23.60;70.20;;;;;;6230427;28;89064;-64
2023/12/30 07:52:05;;;;;;;6.70;6.10;;;23.60;70.20;;;;;;6228889;28;88794;-63
2023/12/30 07:55:08;;;;;;;6.93;6.32;;;23.60;70.20;;;;;;6228596;28;88262;-64
2023/12/30 07:58:11;;;;;;;7.75;6.93;;;23.60;70.20;;;;;;6228842;28;90359;-64
2023/12/30 08:01:13;;;;;;;6.75;6.15;;;23.60;70.20;;;;;;6229917;28;88034;-64
2023/12/30 08:04:15;;;;;;;6.88;6.20;;;23.60;70.10;;;;;;6230235;28;90094;-64
2023/12/30 08:07:17;;;;;;;6.57;5.97;;;23.60;70.10;;;;;;6229720;28;89178;-64
2023/12/30 08:10:19;;;;;;;6.72;6.13;;;23.60;70.20;;;;;;6226923;28;89038;-63
2023/12/30 08:13:23;;;;;;;6.85;6.25;;;23.60;70.10;;;;;;6229036;28;87870;-64
2023/12/30 08:16:25;;;;;;;6.65;6.00;;;23.60;70.10;;;;;;6229363;28;87933;-64
2023/12/30 08:19:27;;;;;;;6.03;5.53;;;23.60;70.10;;;;;;6229277;28;89005;-64
2023/12/30 08:22:29;;;;;;;6.53;5.93;;;23.60;70.10;;;;;;6226787;28;89409;-64
2023/12/30 08:25:31;;;;;;;6.20;5.70;;;23.70;70.10;;;;;;6229267;28;88477;-64
2023/12/30 08:28:34;;;;;;;6.50;5.72;;;23.60;70.10;;;;;;6225962;28;89230;-64
2023/12/30 08:31:39;;;;;;;6.72;6.03;;;23.60;70.10;;;;;;6229469;28;89064;-64
2023/12/30 08:34:40;;;;;;;6.22;5.63;;;23.60;70.00;;;;;;6228401;28;90006;-64
2023/12/30 08:37:42;;;;;;;6.15;5.65;;;23.70;70.10;;;;;;6214495;28;89109;-64
2023/12/30 08:40:44;;;;;;;6.55;5.95;;;23.70;70.00;;;;;;6230049;28;88221;-64
2023/12/30 08:43:51;;;;;;;5.95;5.45;;;23.70;70.00;;;;;;6233592;28;89096;-64
2023/12/30 08:46:53;;;;;;;6.22;5.63;;;23.70;70.10;;;;;;6218272;28;88998;-64
2023/12/30 08:49:54;;;;;;;6.57;5.90;;;23.70;70.00;;;;;;6209731;28;89463;-64
2023/12/30 08:52:56;;;;;;;5.70;4.95;;;23.70;70.00;;;;;;6222878;28;89071;-66
2023/12/30 08:55:58;;;;;;;5.97;5.47;;;23.70;70.00;;;;;;6219917;28;88444;-64
2023/12/30 08:59:02;;;;;;;6.18;5.57;;;23.70;70.00;;;;;;6213254;28;89155;-64
2023/12/30 09:02:04;;;;;;;6.10;5.50;;;23.70;70.00;;;;;;6219487;28;89268;-64
2023/12/30 09:05:07;;;;;;;5.65;5.15;;;23.70;70.00;;;;;;6224736;28;90056;-65
2023/12/30 09:08:09;;;;;;;5.97;5.38;;;23.70;70.00;;;;;;6233336;28;89040;-64
2023/12/30 09:11:19;;;;;;;5.40;4.90;;;23.70;70.00;;;;;;6224442;28;89115;-64
2023/12/30 09:14:23;;;;;;;6.88;5.70;;;23.70;70.00;;;;;;6218091;28;88982;-64
2023/12/30 09:17:25;;;;;;;5.30;4.80;;;23.70;70.00;;;;;;6210756;28;88474;-64
2023/12/30 09:20:27;;;;;;;5.07;4.65;;;23.70;70.90;;;;;;6232925;28;89004;-64
2023/12/30 09:23:29;;;;;;;5.20;4.70;;;23.70;70.00;;;;;;6232086;28;89062;-64
2023/12/30 09:26:30;;;;;;;5.32;4.82;;;23.70;70.00;;;;;;6233259;28;88289;-64
2023/12/30 09:29:34;;;;;;;5.50;5.00;;;23.70;70.00;;;;;;6233159;28;89074;-64
2023/12/30 09:32:36;;;;;;;5.40;4.88;;;23.70;70.00;;;;;;6227645;28;89114;-64
2023/12/30 09:35:39;;;;;;;5.15;4.65;;;23.70;70.00;;;;;;6224297;28;90085;-64
2023/12/30 09:38:41;;;;;;;5.22;4.72;;;23.70;70.00;;;;;;6231770;28;88272;-64
2023/12/30 09:41:43;;;;;;;5.45;4.95;;;23.70;70.00;;;;;;6230663;28;89008;-64
2023/12/30 09:44:47;;;;;;;4.55;4.15;;;23.70;70.00;;;;;;6232530;28;87909;-64
2023/12/30 09:47:51;;;;;;;4.60;4.20;;;23.70;70.00;;;;;;6229420;28;88060;-64
2023/12/30 09:50:53;;;;;;;4.90;4.50;;;23.70;70.00;;;;;;6229150;28;89081;-64
2023/12/30 09:53:55;;;;;;;4.55;4.15;;;23.80;70.00;;;;;;6231331;28;89075;-64
2023/12/30 09:56:57;;;;;;;4.68;4.22;;;23.80;70.00;;;;;;6224025;28;88277;-64
2023/12/30 10:00:02;;;;;;;4.90;4.40;;;23.80;70.00;;;;;;6231083;28;89108;-64
2023/12/30 10:03:04;;;;;;;4.88;4.32;;;23.80;69.80;;;;;;6227049;28;89008;-64
2023/12/30 10:06:11;;;;;;;4.82;4.32;;;23.80;69.90;;;;;;6231613;28;89980;-64
2023/12/30 10:09:14;;;;;;;4.45;4.05;;;23.80;69.80;;;;;;6228924;28;89100;-64
2023/12/30 10:12:16;;;;;;;4.18;3.83;;;23.80;69.90;;;;;;6226694;28;89028;-64
2023/12/30 10:15:20;;;;;;;4.35;3.92;;;23.80;69.90;;;;;;6231573;28;88995;-64
2023/12/30 10:18:22;;;;;;;4.65;4.25;;;23.80;69.90;;;;;;6231598;28;87949;-64
2023/12/30 10:21:24;;;;;;;4.25;3.85;;;23.80;70.00;;;;;;6229592;28;89093;-64
2023/12/30 10:24:26;;;;;;;4.32;3.92;;;23.80;70.00;;;;;;6231778;28;89313;-64
2023/12/30 10:27:28;;;;;;;4.72;4.10;;;23.80;70.00;;;;;;6230179;28;88431;-64
2023/12/30 10:30:31;;;;;;;5.53;4.53;;;23.80;70.00;;;;;;6232425;28;88046;-64
2023/12/30 10:33:35;;;;;;;4.55;4.13;;;23.80;70.00;;;;;;6230846;28;87894;-64
2023/12/30 10:36:39;;;;;;;3.95;3.65;;;23.90;70.00;;;;;;6226514;28;90003;-64
2023/12/30 10:39:43;;;;;;;4.10;3.80;;;23.90;70.00;;;;;;6225693;28;89013;-64
2023/12/30 10:42:45;;;;;;;3.80;3.50;;;23.80;70.00;;;;;;6213968;28;89065;-64
2023/12/30 10:45:57;;;;;;;3.92;3.63;;;23.90;69.90;;;;;;6231282;28;88947;-64
2023/12/30 10:49:03;;;;;;;3.78;3.47;;;23.90;69.90;;;;;;6212517;28;89283;-64
2023/12/30 10:52:12;;;;;;;3.83;3.53;;;23.90;70.00;;;;;;6218331;28;88927;-64
2023/12/30 10:55:17;;;;;;;3.78;3.45;;;23.80;69.90;;;;;;6228640;28;89001;-64
2023/12/30 10:58:21;;;;;;;4.30;3.72;;;23.90;70.00;;;;;;6226110;28;88199;-65
2023/12/30 11:01:26;;;;;;;4.30;3.88;;;23.90;70.00;;;;;;6229222;28;89383;-65
2023/12/30 11:04:28;;;;;;;4.80;3.75;;;23.90;70.00;;;;;;6221436;28;89275;-64
2023/12/30 11:07:30;;;;;;;3.83;3.47;;;23.90;70.00;;;;;;6219765;28;90177;-64
2023/12/30 11:10:34;;;;;;;3.45;3.15;;;23.90;70.00;;;;;;6230384;28;88991;-64
2023/12/30 11:13:36;;;;;;;3.72;3.40;;;23.90;70.00;;;;;;6222694;28;89033;-64
2023/12/30 11:16:40;;;;;;;3.95;3.55;;;23.90;70.00;;;;;;6216058;28;88932;-64
2023/12/30 11:19:42;;;;;;;3.78;3.15;;;23.90;69.90;;;;;;6229511;28;87838;-64
2023/12/30 11:22:44;;;;;;;3.15;2.95;;;23.90;69.90;;;;;;6230598;28;89524;-65
2023/12/30 11:25:47;;;;;;;3.47;3.17;;;23.90;69.90;;;;;;6229138;28;88996;-64
2023/12/30 11:28:50;;;;;;;3.45;3.15;;;23.90;69.90;;;;;;6230111;28;88442;-65
2023/12/30 11:31:55;;;;;;;3.50;3.20;;;23.90;69.90;;;;;;6229731;28;89003;-64
2023/12/30 11:34:59;;;;;;;3.20;2.90;;;23.90;69.90;;;;;;6229548;28;89079;-65
2023/12/30 11:38:06;;;;;;;3.13;2.88;;;23.90;70.00;;;;;;6227349;28;89991;-64
2023/12/30 11:41:09;;;;;;;3.10;2.90;;;23.90;70.00;;;;;;6230242;28;88945;-64
2023/12/30 11:44:11;;;;;;;3.25;2.95;;;23.90;69.90;;;;;;6229512;28;89161;-65
2023/12/30 11:47:22;;;;;;;3.53;3.22;;;23.90;70.00;;;;;;6229256;28;89483;-65
2023/12/30 11:50:24;;;;;;;2.90;2.70;;;23.90;70.00;;;;;;6229749;28;88942;-65
2023/12/30 11:53:26;;;;;;;3.22;2.92;;;23.90;70.00;;;;;;6230022;28;89067;-65
2023/12/30 11:56:28;;;;;;;4.15;3.35;;;23.90;70.00;;;;;;6230750;28;89143;-64
2023/12/30 11:59:30;;;;;;;3.45;3.15;;;23.90;70.00;;;;;;6230388;28;88672;-64
2023/12/30 12:02:34;;;;;;;3.17;2.80;;;23.90;70.00;;;;;;6218710;28;89479;-64
2023/12/30 12:05:36;;;;;;;3.15;2.85;;;23.90;70.00;;;;;;6230019;28;89027;-64
2023/12/30 12:08:38;;;;;;;3.08;2.78;;;23.90;70.00;;;;;;6229432;28;90037;-65
2023/12/30 12:11:40;;;;;;;3.47;3.13;;;23.90;70.10;;;;;;6229030;28;89079;-64
2023/12/30 12:14:49;;;;;;;3.10;2.80;;;23.90;70.00;;;;;;6229210;28;89016;-64
2023/12/30 12:17:52;;;;;;;3.15;2.85;;;23.90;70.10;;;;;;6229427;28;89108;-64
2023/12/30 12:20:54;;;;;;;3.10;2.80;;;24.00;70.20;;;;;;6230391;28;89038;-64
2023/12/30 12:23:56;;;;;;;4.63;3.45;;;23.90;70.10;;;;;;6229540;28;89103;-64
2023/12/30 12:26:58;;;;;;;2.72;2.53;;;23.90;70.10;;;;;;6217383;28;89084;-65
2023/12/30 12:30:01;;;;;;;2.80;2.60;;;23.90;70.10;;;;;;6229349;28;88330;-64
2023/12/30 12:33:05;;;;;;;2.78;2.58;;;23.90;70.10;;;;;;6229237;28;88359;-64
2023/12/30 12:36:08;;;;;;;2.78;2.58;;;23.90;70.00;;;;;;6227796;28;89685;-64
2023/12/30 12:39:10;;;;;;;2.60;2.40;;;23.90;70.10;;;;;;6228114;28;90663;-64
2023/12/30 12:42:12;;;;;;;2.50;2.30;;;23.90;70.00;;;;;;6229590;28;88986;-64
2023/12/30 12:45:14;;;;;;;3.33;2.63;;;23.90;70.00;;;;;;6229516;28;89063;-65
2023/12/30 12:48:18;;;;;;;3.90;3.10;;;24.00;70.00;;;;;;6229128;28;89370;-65
2023/12/30 12:51:21;;;;;;;3.15;2.55;;;24.00;70.00;;;;;;6228746;28;89111;-64
2023/12/30 12:54:23;;;;;;;2.80;2.60;;;24.00;70.00;;;;;;6219117;28;88967;-64
2023/12/30 12:57:25;;;;;;;2.78;2.58;;;24.00;70.00;;;;;;6220828;28;89061;-65
2023/12/30 13:00:27;;;;;;;2.70;2.50;;;23.90;70.00;;;;;;6218145;28;88284;-64
2023/12/30 13:03:31;;;;;;;2.50;2.30;;;24.00;70.00;;;;;;6227659;28;88008;-64
2023/12/30 13:06:33;;;;;;;2.78;2.33;;;24.00;70.00;;;;;;6229059;28;88982;-65
2023/12/30 13:09:40;;;;;;;4.43;2.80;;;23.90;70.00;;;;;;6228175;28;89959;-64
2023/12/30 13:12:42;;;;;;;2.42;2.22;;;24.00;70.10;;;;;;6230288;28;89156;-64
2023/12/30 13:15:45;;;;;;;2.60;2.38;;;24.00;70.00;;;;;;6230103;28;88981;-64
2023/12/30 13:18:48;;;;;;;3.03;2.63;;;24.00;70.10;;;;;;6227439;28;89039;-64
2023/12/30 13:21:50;;;;;;;2.67;2.47;;;24.00;70.10;;;;;;6217170;28;89055;-64
2023/12/30 13:24:52;;;;;;;2.60;2.40;;;24.00;70.10;;;;;;6227864;28;89116;-64
2023/12/30 13:27:54;;;;;;;2.22;2.03;;;23.90;70.00;;;;;;6229186;28;89400;-64
2023/12/30 13:30:56;;;;;;;3.45;2.45;;;24.00;70.10;;;;;;6232308;28;88439;-64
2023/12/30 13:34:00;;;;;;;2.35;2.15;;;23.90;70.00;;;;;;6231180;28;89072;-64
2023/12/30 13:37:05;;;;;;;2.55;2.33;;;24.00;70.10;;;;;;6233098;28;88912;-64
2023/12/30 13:40:12;;;;;;;2.85;2.40;;;23.90;70.00;;;;;;6220767;28;88920;-64
2023/12/30 13:43:14;;;;;;;2.63;2.42;;;23.90;70.10;;;;;;6233171;28;88931;-64
2023/12/30 13:46:33;;;;;;;2.78;2.47;;;23.90;70.30;;;;;;6230563;28;89219;-64
2023/12/30 13:50:04;;;;;;;2.60;2.30;;;23.90;70.30;;;;;;6231891;28;89211;-64
2023/12/30 13:53:06;;;;;;;2.20;2.00;;;23.90;70.30;;;;;;6230704;28;90150;-64
2023/12/30 13:56:15;;;;;;;2.60;2.40;;;23.90;70.40;;;;;;6230964;28;89209;-64
2023/12/30 13:59:18;;;;;;;2.42;2.22;;;23.90;70.30;;;;;;6232373;28;88381;-64
2023/12/30 14:02:22;;;;;;;2.40;2.20;;;23.90;70.30;;;;;;6232819;28;87997;-64
2023/12/30 14:05:29;;;;;;;3.15;2.30;;;23.90;70.40;;;;;;6229969;28;89080;-64
2023/12/30 14:08:36;;;;;;;3.40;2.30;;;23.90;70.50;;;;;;6231053;28;89020;-64
2023/12/30 14:11:46;;;;;;;3.45;2.33;;;23.90;70.60;;;;;;6231436;28;90599;-64
2023/12/30 14:14:53;;;;;;;6.13;2.92;;;23.90;70.90;;;;;;6218320;28;89249;-64
2023/12/30 14:17:55;;;;;;;4.18;2.60;;;23.90;71.20;;;;;;6210991;28;88898;-64
2023/12/30 14:20:58;;;;;;;5.40;2.60;;;23.90;71.40;;;;;;6232254;28;89037;-64
2023/12/30 14:24:00;;;;;;;5.55;3.00;;;23.90;71.50;;;;;;6228366;28;88931;-64
2023/12/30 14:27:02;;;;;;;3.88;2.53;;;23.90;71.60;;;;;;6224883;28;90320;-64
2023/12/30 14:30:05;;;;;;;4.68;2.83;;;24.00;71.80;;;;;;6211511;28;88890;-64
2023/12/30 14:33:08;;;;;;;5.78;2.65;;;24.00;71.90;;;;;;6226954;28;87152;-64
2023/12/30 14:36:12;;;;;;;6.68;2.50;;;24.00;72.20;;;;;;6231387;28;89093;-65
2023/12/30 14:39:15;;;;;;;7.35;2.95;;;23.90;72.30;;;;;;6228386;28;89053;-65
2023/12/30 14:42:19;;;;;;;4.68;2.72;;;24.00;75.40;;;;;;6229504;28;90411;-65
2023/12/30 14:45:21;;;;;;;7.20;3.05;;;24.00;73.80;;;;;;6224690;28;89009;-65
2023/12/30 14:48:23;;;;;;;5.82;2.92;;;24.00;74.40;;;;;;6217057;28;89712;-65
2023/12/30 14:51:27;;;;;;;4.75;2.75;;;24.00;73.30;;;;;;6209748;28;89043;-64
2023/12/30 14:54:29;;;;;;;4.55;2.83;;;24.00;73.30;;;;;;6219079;28;87896;-65
2023/12/30 14:57:31;;;;;;;4.60;2.70;;;24.00;73.30;;;;;;6217271;28;89027;-64
2023/12/30 15:00:33;;;;;;;4.43;2.67;;;24.00;73.30;;;;;;6219620;28;88951;-65
2023/12/30 15:03:35;;;;;;;5.03;2.40;;;24.00;73.30;;;;;;6214643;28;88327;-64
2023/12/30 15:06:40;;;;;;;3.38;2.63;;;24.00;73.20;;;;;;6216147;28;89073;-65
2023/12/30 15:09:42;;;;;;;4.47;2.35;;;24.00;73.20;;;;;;6214244;28;88870;-65
2023/12/30 15:12:46;;;;;;;5.25;2.65;;;23.90;73.00;;;;;;6224013;28;89817;-65
2023/12/30 15:15:48;;;;;;;4.45;2.58;;;24.00;73.20;;;;;;6230056;28;89099;-65
2023/12/30 15:18:50;;;;;;;4.45;2.70;;;24.00;73.10;;;;;;6220748;28;88275;-65
2023/12/30 15:21:54;;;;;;;5.00;2.80;;;24.00;73.10;;;;;;6228781;28;87752;-65
2023/12/30 15:24:56;;;;;;;4.32;2.50;;;24.00;73.00;;;;;;6228862;28;88923;-65
2023/12/30 15:27:58;;;;;;;3.92;2.67;;;24.00;73.00;;;;;;6230094;28;88065;-65
2023/12/30 15:31:01;;;;;;;4.60;2.53;;;24.00;72.80;;;;;;6225947;28;87814;-64
2023/12/30 15:34:04;;;;;;;4.40;2.03;;;24.00;72.80;;;;;;6221943;28;88893;-65
2023/12/30 15:37:07;;;;;;;5.80;2.67;;;24.00;72.70;;;;;;6231394;28;89072;-65
2023/12/30 15:40:11;;;;;;;5.13;2.60;;;24.00;72.50;;;;;;6229322;28;89054;-64
2023/12/30 15:43:13;;;;;;;3.05;2.53;;;24.00;72.50;;;;;;6219844;28;90037;-65